Time;durP1;ratioP1;P1;durP2;ratioP2;P2;SDS_P1;SDS_P2;PMS_P1;PMS_P2;Temp;Humidity;BMP_temperature;BMP_pressure;BME280_temperature;BME280_humidity;BME280_pressure;Samples;Min_cycle;Max_cycle;Signal;HPM_P1;HPM_P2
2021/05/27 00:02:38;;;;;;;7.50;3.00;;;10.40;93.90;;;;;;5137578;27;20080;-89
2021/05/27 00:12:29;;;;;;;9.30;3.10;;;10.20;93.90;;;;;;5137336;27;20407;-88
2021/05/27 00:18:17;;;;;;;6.95;3.63;;;10.10;93.80;;;;;;5137482;27;20026;-88
2021/05/27 00:24:06;;;;;;;7.38;3.63;;;10.00;93.90;;;;;;5137406;27;20061;-88
2021/05/27 00:29:54;;;;;;;7.53;3.20;;;9.90;93.80;;;;;;5136911;27;20046;-89
2021/05/27 00:35:42;;;;;;;6.65;3.03;;;9.80;93.90;;;;;;5136902;27;20072;-89
2021/05/27 00:41:31;;;;;;;8.05;3.47;;;9.70;93.90;;;;;;5137110;27;20073;-89
2021/05/27 00:47:19;;;;;;;7.10;2.97;;;9.70;94.00;;;;;;5136679;27;20075;-89
2021/05/27 00:53:08;;;;;;;6.45;2.75;;;9.70;94.00;;;;;;5136915;27;20150;-89
2021/05/27 00:58:57;;;;;;;6.70;3.15;;;9.60;93.90;;;;;;5137317;27;20087;-89
2021/05/27 01:04:46;;;;;;;9.23;3.90;;;9.50;93.90;;;;;;5136624;27;20126;-89
2021/05/27 01:20:45;;;;;;;10.32;4.03;;;9.30;93.90;;;;;;5115598;28;20038;-89
2021/05/27 01:26:34;;;;;;;9.40;4.78;;;9.30;94.00;;;;;;5136162;27;20379;-88
2021/05/27 01:32:23;;;;;;;9.13;4.35;;;9.30;94.10;;;;;;5136212;27;20030;-88
2021/05/27 01:38:17;;;;;;;9.43;4.07;;;9.20;94.00;;;;;;5136037;27;20123;-89
2021/05/27 01:44:05;;;;;;;10.63;5.15;;;9.30;94.30;;;;;;5135838;27;20414;-88
2021/05/27 01:49:54;;;;;;;9.07;4.80;;;9.40;94.40;;;;;;5135703;27;20029;-88
2021/05/27 01:55:48;;;;;;;8.15;4.05;;;9.40;94.20;;;;;;5135384;27;20037;-88
2021/05/27 02:01:36;;;;;;;8.52;4.53;;;9.40;94.20;;;;;;5135325;27;20046;-88
2021/05/27 02:07:27;;;;;;;10.48;4.72;;;9.40;94.30;;;;;;5135349;27;20026;-87
2021/05/27 02:17:16;;;;;;;9.70;4.55;;;9.40;94.20;;;;;;5135252;27;20073;-88
2021/05/27 02:23:03;;;;;;;10.27;4.63;;;9.30;94.10;;;;;;5134798;27;20490;-88
2021/05/27 02:28:53;;;;;;;8.13;3.95;;;9.30;94.10;;;;;;5134858;27;20030;-89
2021/05/27 02:34:41;;;;;;;10.00;4.40;;;9.20;94.00;;;;;;5135016;27;20073;-89
2021/05/27 02:40:31;;;;;;;10.00;4.80;;;9.20;94.10;;;;;;5134970;27;20375;-89
2021/05/27 02:46:20;;;;;;;10.32;5.43;;;9.10;94.10;;;;;;5134615;28;20025;-89
2021/05/27 02:52:09;;;;;;;14.38;4.47;;;9.10;94.10;;;;;;5134918;28;20080;-89
2021/05/27 02:57:57;;;;;;;13.35;5.88;;;9.10;94.20;;;;;;5134897;28;20031;-90
2021/05/27 03:03:45;;;;;;;14.68;5.63;;;9.10;94.10;;;;;;5134555;28;20436;-90
2021/05/27 03:09:34;;;;;;;12.95;5.55;;;9.10;94.20;;;;;;5134405;28;20030;-89
2021/05/27 03:19:18;;;;;;;14.57;7.63;;;9.00;94.20;;;;;;5134711;28;20501;-90
2021/05/27 03:25:08;;;;;;;12.73;7.32;;;9.10;94.40;;;;;;5136826;27;20435;-89
2021/05/27 03:30:57;;;;;;;14.20;7.25;;;9.20;94.40;;;;;;5138836;27;20413;-89
2021/05/27 03:36:45;;;;;;;9.90;5.35;;;9.30;94.30;;;;;;5138564;27;20026;-89
2021/05/27 03:42:34;;;;;;;12.93;6.43;;;9.20;94.20;;;;;;5143295;27;20054;-91
2021/05/27 03:48:26;;;;;;;11.10;5.57;;;9.20;94.10;;;;;;5138961;27;20538;-88
2021/05/27 03:54:14;;;;;;;19.60;12.77;;;9.10;94.10;;;;;;5140421;27;20050;-88
2021/05/27 04:22:30;;;;;;;10.38;5.40;;;9.40;94.30;;;;;;5137618;27;20540;-90
2021/05/27 04:28:19;;;;;;;12.05;6.22;;;9.40;94.30;;;;;;5137344;27;20023;-89
2021/05/27 04:34:10;;;;;;;11.88;5.60;;;9.40;94.40;;;;;;5137098;27;20030;-89
2021/05/27 04:39:59;;;;;;;10.07;5.80;;;9.50;94.40;;;;;;5137252;27;20096;-89
2021/05/27 04:45:50;;;;;;;11.50;6.03;;;9.60;94.50;;;;;;5137206;27;20035;-90
2021/05/27 04:51:38;;;;;;;10.77;6.20;;;9.80;94.60;;;;;;5137093;27;20025;-89
2021/05/27 04:57:26;;;;;;;11.73;6.03;;;9.90;94.70;;;;;;5136769;27;20122;-89
2021/05/27 05:03:15;;;;;;;11.60;6.43;;;10.10;94.70;;;;;;5136421;27;20116;-92
2021/05/27 05:09:04;;;;;;;8.27;4.30;;;10.20;94.50;;;;;;5136567;27;20026;-89
2021/05/27 05:14:52;;;;;;;12.73;6.97;;;10.30;94.60;;;;;;5136210;27;20395;-90
2021/05/27 05:24:42;;;;;;;12.82;6.85;;;10.60;94.70;;;;;;5136136;27;20139;-80
2021/05/27 05:30:32;;;;;;;13.93;7.68;;;10.80;94.80;;;;;;5135930;27;20075;-86
2021/05/27 05:36:22;;;;;;;13.38;6.40;;;11.00;94.70;;;;;;5136042;27;20111;-87
2021/05/27 05:42:11;;;;;;;23.17;9.18;;;11.10;94.70;;;;;;5135648;27;20427;-87
2021/05/27 05:48:01;;;;;;;7.57;4.18;;;11.50;95.00;;;;;;5134686;27;20100;-86
2021/05/27 05:53:50;;;;;;;15.18;7.80;;;11.80;95.00;;;;;;5136802;27;20082;-87
2021/05/27 05:59:39;;;;;;;15.63;7.32;;;12.00;94.70;;;;;;5135656;27;20045;-85
2021/05/27 06:05:58;;;;;;;10.10;5.45;;;12.20;94.80;;;;;;5135095;27;20045;-87
2021/05/27 06:11:46;;;;;;;13.18;6.20;;;12.40;94.70;;;;;;5134875;27;20060;-86
2021/05/27 06:17:44;;;;;;;12.00;5.47;;;12.60;95.00;;;;;;5134852;27;20119;-87
2021/05/27 06:27:34;;;;;;;17.73;8.63;;;13.10;94.60;;;;;;5135179;27;20038;-87
2021/05/27 06:33:25;;;;;;;19.05;7.55;;;13.30;94.40;;;;;;5134861;27;20156;-86
2021/05/27 06:39:13;;;;;;;7.97;3.40;;;13.50;94.40;;;;;;5134862;27;20034;-85
2021/05/27 06:45:05;;;;;;;14.63;5.97;;;13.60;94.40;;;;;;5134816;27;20029;-85
2021/05/27 06:50:54;;;;;;;11.98;4.13;;;13.60;93.90;;;;;;5134467;28;20030;-87
2021/05/27 06:56:52;;;;;;;7.40;3.05;;;13.40;93.70;;;;;;5134365;28;20080;-87
2021/05/27 07:02:44;;;;;;;10.25;4.53;;;13.40;93.90;;;;;;5138595;27;20038;-87
2021/05/27 07:14:55;;;;;;;10.63;4.43;;;13.20;93.60;;;;;;5138611;27;20555;-89
2021/05/27 07:21:02;;;;;;;13.55;4.75;;;13.20;93.80;;;;;;5138255;27;20032;-88
2021/05/27 07:30:51;;;;;;;8.82;4.00;;;13.30;93.70;;;;;;5138451;27;20061;-87
2021/05/27 07:37:08;;;;;;;11.10;4.63;;;13.30;93.80;;;;;;5138326;27;20413;-88
2021/05/27 07:43:15;;;;;;;7.47;3.08;;;13.30;93.50;;;;;;5137957;27;20058;-89
2021/05/27 07:49:22;;;;;;;10.32;4.22;;;13.30;94.00;;;;;;5137955;27;20122;-88
2021/05/27 07:55:13;;;;;;;5.35;2.90;;;13.30;93.70;;;;;;5140136;27;20030;-87
2021/05/27 08:01:14;;;;;;;;;;;;;;;;;;;;;
2021/05/27 08:07:10;;;;;;;11.70;4.68;;;13.30;94.10;;;;;;5140407;27;20026;-87
2021/05/27 08:13:02;;;;;;;7.38;3.53;;;14.10;95.20;;;;;;5139356;27;20031;-88
2021/05/27 08:18:55;;;;;;;9.10;4.03;;;14.70;94.80;;;;;;5137604;27;20407;-87
2021/05/27 08:24:44;;;;;;;12.40;4.55;;;14.60;93.10;;;;;;5139592;27;20061;-88
2021/05/27 08:30:37;;;;;;;8.48;4.15;;;14.20;93.40;;;;;;5116888;28;20360;-87
2021/05/27 08:36:56;;;;;;;10.43;3.97;;;14.30;94.00;;;;;;5116365;28;20066;-87
2021/05/27 08:42:55;;;;;;;8.52;3.78;;;14.50;94.00;;;;;;5117483;28;20046;-85
2021/05/27 08:48:54;;;;;;;5.32;2.80;;;15.00;94.50;;;;;;5095717;28;20035;-87
2021/05/27 08:54:46;;;;;;;9.77;4.78;;;15.80;94.90;;;;;;5095587;28;20054;-86
2021/05/27 09:00:36;;;;;;;6.13;2.47;;;16.40;94.30;;;;;;5095323;28;20027;-86
2021/05/27 09:06:25;;;;;;;18.67;5.95;;;16.70;93.90;;;;;;5095354;28;20483;-85
2021/05/27 09:12:33;;;;;;;5.03;2.58;;;17.00;93.60;;;;;;5095255;28;20039;-86
2021/05/27 09:18:33;;;;;;;4.72;2.40;;;17.00;93.00;;;;;;5095358;28;20124;-85
2021/05/27 09:24:49;;;;;;;8.52;3.40;;;16.60;92.40;;;;;;5095076;28;20075;-87
2021/05/27 09:30:45;;;;;;;7.05;2.28;;;16.60;93.10;;;;;;5094819;28;20027;-86
2021/05/27 09:36:18;;;;;;;5.93;2.75;;;16.30;92.30;;;;;;5094848;28;20321;-86
2021/05/27 09:42:20;;;;;;;6.47;2.90;;;16.10;92.80;;;;;;5094850;28;20102;-88
2021/05/27 09:48:45;;;;;;;7.65;2.83;;;16.10;92.70;;;;;;5094417;28;20067;-88
2021/05/27 09:54:56;;;;;;;7.65;3.40;;;16.10;92.90;;;;;;5094572;28;20495;-87
2021/05/27 10:00:51;;;;;;;6.72;3.03;;;16.50;93.80;;;;;;5094283;28;20396;-88
2021/05/27 10:06:47;;;;;;;6.45;3.28;;;17.00;93.40;;;;;;5094310;28;20081;-86
2021/05/27 10:12:46;;;;;;;6.65;2.47;;;16.90;92.80;;;;;;5094052;28;20035;-88
2021/05/27 10:18:41;;;;;;;8.35;3.40;;;16.90;92.50;;;;;;5094232;28;20031;-88
2021/05/27 10:24:34;;;;;;;10.82;3.80;;;16.50;92.30;;;;;;5094015;28;20085;-88
2021/05/27 10:30:43;;;;;;;8.68;3.55;;;16.50;92.60;;;;;;5093752;28;20047;-87
2021/05/27 10:36:50;;;;;;;6.70;2.88;;;16.60;92.80;;;;;;5093931;28;20036;-88
2021/05/27 10:43:28;;;;;;;9.57;3.92;;;16.80;93.10;;;;;;5093759;28;20047;-88
2021/05/27 11:00:24;;;;;;;7.50;3.67;;;16.90;91.90;;;;;;5051639;28;20079;-85
2021/05/27 11:06:34;;;;;;;12.48;4.30;;;16.50;92.10;;;;;;5051163;28;20028;-87
2021/05/27 11:12:25;;;;;;;13.20;4.50;;;16.60;92.80;;;;;;5051649;28;20500;-87
2021/05/27 11:18:14;;;;;;;21.17;4.20;;;16.80;92.90;;;;;;5051313;28;20384;-85
2021/05/27 11:27:53;;;;;;;17.13;4.70;;;17.00;92.30;;;;;;5091561;28;20067;-88
2021/05/27 11:33:42;;;;;;;24.13;5.40;;;16.80;92.50;;;;;;5072967;28;20023;-86
2021/05/27 11:39:31;;;;;;;5.25;2.58;;;16.60;91.90;;;;;;5073284;28;20047;-85
2021/05/27 11:45:22;;;;;;;9.68;4.03;;;16.60;93.50;;;;;;5073745;28;20483;-86
2021/05/27 11:51:12;;;;;;;9.55;4.15;;;17.60;93.60;;;;;;5076543;28;20408;-86
2021/05/27 11:57:00;;;;;;;6.75;2.45;;;18.50;93.60;;;;;;5076694;28;20031;-86
2021/05/27 12:02:52;;;;;;;11.07;5.13;;;18.30;92.00;;;;;;5076210;28;20090;-87
2021/05/27 12:08:43;;;;;;;8.80;4.32;;;18.80;93.10;;;;;;5076238;28;20024;-88
2021/05/27 12:14:48;;;;;;;3.22;1.60;;;18.70;91.60;;;;;;5076937;28;20119;-87
2021/05/27 12:20:38;;;;;;;10.43;4.07;;;17.90;90.90;;;;;;5076741;28;20040;-89
2021/05/27 12:26:27;;;;;;;7.70;3.90;;;17.60;92.20;;;;;;5076573;28;20035;-89
2021/05/27 12:32:15;;;;;;;9.07;3.40;;;19.80;97.20;;;;;;5096463;28;20375;-88
2021/05/27 12:38:08;;;;;;;5.50;2.58;;;22.90;95.70;;;;;;5096292;28;20088;-86
2021/05/27 12:43:57;;;;;;;4.78;2.70;;;23.50;92.30;;;;;;5095728;28;20091;-84
2021/05/27 12:49:49;;;;;;;5.25;2.28;;;24.70;93.00;;;;;;5095650;28;20027;-85
2021/05/27 12:55:37;;;;;;;6.30;2.70;;;22.90;83.20;;;;;;5095528;28;20111;-85
2021/05/27 13:01:44;;;;;;;7.47;3.03;;;21.00;86.80;;;;;;5095622;28;20524;-85
2021/05/27 13:07:32;;;;;;;6.90;2.78;;;20.90;90.60;;;;;;5095622;28;20050;-86
2021/05/27 13:13:32;;;;;;;8.75;3.28;;;21.70;92.50;;;;;;5095562;28;20094;-86
2021/05/27 13:19:27;;;;;;;8.30;2.53;;;20.90;87.70;;;;;;5097177;28;20031;-86
2021/05/27 13:25:16;;;;;;;6.68;3.28;;;20.20;90.40;;;;;;5095285;28;20404;-85
2021/05/27 13:35:30;;;;;;;8.68;4.07;;;22.50;94.40;;;;;;5115766;28;20074;-85
2021/05/27 13:41:19;;;;;;;6.90;2.92;;;24.60;92.20;;;;;;5115455;28;20510;-85
2021/05/27 13:47:08;;;;;;;5.05;2.30;;;23.60;85.90;;;;;;5115294;28;20047;-85
2021/05/27 13:53:04;;;;;;;6.10;2.83;;;22.10;85.90;;;;;;5114938;28;20081;-85
2021/05/27 13:58:53;;;;;;;7.03;2.67;;;21.20;87.40;;;;;;5114740;28;20053;-85
2021/05/27 14:04:42;;;;;;;6.47;2.67;;;20.60;88.40;;;;;;5114607;28;20042;-86
2021/05/27 14:10:31;;;;;;;5.53;2.50;;;20.30;89.70;;;;;;5114650;28;20050;-86
2021/05/27 14:16:20;;;;;;;6.05;2.80;;;20.00;90.20;;;;;;5114498;28;20062;-86
2021/05/27 14:22:08;;;;;;;6.47;2.75;;;20.20;90.80;;;;;;5114236;28;20441;-86
2021/05/27 14:27:57;;;;;;;6.47;2.67;;;20.20;90.40;;;;;;5114445;28;20034;-86
2021/05/27 14:37:46;;;;;;;6.18;2.92;;;20.10;90.30;;;;;;5114431;28;20030;-86
2021/05/27 14:43:35;;;;;;;6.65;2.53;;;19.80;88.30;;;;;;5114179;28;20127;-86
2021/05/27 14:49:27;;;;;;;5.32;2.40;;;19.50;88.80;;;;;;5114121;28;20089;-87
2021/05/27 14:55:16;;;;;;;5.78;2.50;;;18.40;86.10;;;;;;5114371;28;20038;-87
2021/05/27 15:01:05;;;;;;;4.47;2.28;;;17.40;86.20;;;;;;5114102;28;20035;-87
2021/05/27 15:06:53;;;;;;;7.05;3.10;;;15.50;84.10;;;;;;5114130;28;20038;-88
2021/05/27 15:12:59;;;;;;;4.15;2.10;;;15.50;89.60;;;;;;5114276;28;20069;-88
2021/05/27 15:18:48;;;;;;;3.80;2.13;;;16.10;90.60;;;;;;5114850;28;20100;-91
2021/05/27 15:24:38;;;;;;;3.63;2.20;;;16.50;90.60;;;;;;5118230;28;20042;-91
2021/05/27 15:30:28;;;;;;;4.78;2.40;;;16.30;90.30;;;;;;5118487;28;20148;-91
2021/05/27 15:40:20;;;;;;;21.85;13.70;;;16.90;92.10;;;;;;5118103;28;20506;-89
2021/05/27 15:46:08;;;;;;;6.25;2.92;;;17.60;91.50;;;;;;5100188;28;20039;-91
2021/05/27 15:51:57;;;;;;;6.60;3.13;;;17.70;91.40;;;;;;5117933;28;20057;-87
2021/05/27 15:57:45;;;;;;;7.32;3.50;;;17.50;90.50;;;;;;5117102;28;20371;-88
2021/05/27 16:03:34;;;;;;;8.88;3.58;;;16.90;90.80;;;;;;5117303;28;20046;-85
2021/05/27 16:09:22;;;;;;;5.68;2.75;;;16.70;91.40;;;;;;5117185;28;20532;-86
2021/05/27 16:15:13;;;;;;;4.63;2.40;;;16.50;91.00;;;;;;5117172;28;20054;-85
2021/05/27 16:21:01;;;;;;;7.07;3.67;;;15.90;90.40;;;;;;5117068;28;20038;-85
2021/05/27 16:26:50;;;;;;;9.55;3.83;;;15.00;89.30;;;;;;5116886;28;20038;-85
2021/05/27 16:32:39;;;;;;;4.07;2.13;;;14.80;90.70;;;;;;5116098;28;20035;-85
2021/05/27 16:42:24;;;;;;;7.43;2.95;;;14.70;91.00;;;;;;5116530;28;20088;-84
2021/05/27 16:48:14;;;;;;;7.80;3.88;;;15.40;93.00;;;;;;5107784;28;20049;-85
2021/05/27 16:54:04;;;;;;;10.77;4.22;;;15.90;92.30;;;;;;5116318;28;20097;-85
2021/05/27 16:59:52;;;;;;;8.07;3.80;;;15.70;91.40;;;;;;5116237;28;20095;-85
2021/05/27 17:05:41;;;;;;;8.40;3.75;;;15.60;91.70;;;;;;5115816;28;20097;-85
2021/05/27 17:11:29;;;;;;;6.20;3.03;;;15.40;91.70;;;;;;5116367;28;20027;-87
2021/05/27 17:17:18;;;;;;;8.52;4.70;;;15.40;92.00;;;;;;5115634;28;20089;-88
2021/05/27 17:23:07;;;;;;;11.55;4.60;;;15.80;92.40;;;;;;5115603;28;20387;-92
2021/05/27 17:28:55;;;;;;;7.70;3.65;;;15.80;92.10;;;;;;5115424;28;20065;-88
2021/05/27 17:34:45;;;;;;;8.80;3.55;;;15.60;91.70;;;;;;5115264;28;20033;-86
2021/05/27 17:44:35;;;;;;;6.97;3.20;;;15.20;91.80;;;;;;5115908;28;20043;-93
2021/05/27 17:50:27;;;;;;;4.65;2.42;;;14.80;91.60;;;;;;5115068;28;20070;-92
2021/05/27 17:56:17;;;;;;;3.55;1.85;;;14.20;91.60;;;;;;5114749;28;20042;-89
2021/05/27 18:02:11;;;;;;;2.08;1.55;;;13.90;91.80;;;;;;5115603;28;20026;-86
2021/05/27 18:08:00;;;;;;;3.30;1.60;;;13.90;91.90;;;;;;5115946;28;20528;-88
2021/05/27 18:13:57;;;;;;;3.90;2.00;;;13.80;92.20;;;;;;5118824;28;20035;-92
2021/05/27 18:19:46;;;;;;;3.80;2.00;;;13.60;92.20;;;;;;5115061;28;20094;-89
2021/05/27 18:25:36;;;;;;;5.00;2.20;;;13.50;92.30;;;;;;5114361;28;20091;-87
2021/05/27 18:31:24;;;;;;;3.55;2.00;;;13.60;92.60;;;;;;5114640;28;20482;-88
2021/05/27 18:37:13;;;;;;;5.70;2.42;;;13.60;92.60;;;;;;5114527;28;20108;-89
2021/05/27 18:47:02;;;;;;;6.30;2.90;;;13.50;92.50;;;;;;5115053;28;20137;-91
2021/05/27 18:52:54;;;;;;;7.22;3.40;;;13.50;92.70;;;;;;5114640;28;20097;-88
2021/05/27 18:58:44;;;;;;;7.53;3.40;;;13.40;92.50;;;;;;5115121;28;20030;-94
2021/05/27 19:04:33;;;;;;;9.10;3.67;;;13.40;92.70;;;;;;5114388;28;20058;-90
2021/05/27 19:10:22;;;;;;;9.43;3.88;;;13.30;92.60;;;;;;5114790;28;20037;-92
2021/05/27 19:16:11;;;;;;;8.05;3.92;;;13.30;92.90;;;;;;5114619;28;20495;-92
2021/05/27 19:22:02;;;;;;;8.80;4.07;;;13.20;92.80;;;;;;5114461;28;20031;-89
2021/05/27 19:27:52;;;;;;;9.82;4.80;;;13.20;92.80;;;;;;5113635;28;20038;-91
2021/05/27 19:33:40;;;;;;;9.52;4.63;;;13.20;92.90;;;;;;5113701;28;20065;-90
2021/05/27 19:39:29;;;;;;;10.73;4.55;;;13.20;93.00;;;;;;5113794;28;20390;-90
2021/05/27 19:49:19;;;;;;;8.55;4.30;;;13.30;93.00;;;;;;5113688;28;20041;-86
2021/05/27 19:55:10;;;;;;;9.93;4.30;;;13.20;93.10;;;;;;5113330;28;20026;-87
2021/05/27 20:00:59;;;;;;;10.23;4.38;;;13.20;93.10;;;;;;5113366;28;20053;-86
2021/05/27 20:06:47;;;;;;;9.80;5.00;;;13.10;93.10;;;;;;5114811;28;20102;-86
2021/05/27 20:12:37;;;;;;;9.30;4.22;;;13.10;93.00;;;;;;5116863;28;20072;-87
2021/05/27 20:18:25;;;;;;;10.60;4.40;;;13.10;93.10;;;;;;5117226;28;20482;-87
2021/05/27 20:24:13;;;;;;;8.25;4.13;;;13.10;93.20;;;;;;5116540;28;20085;-87
2021/05/27 20:30:04;;;;;;;9.45;4.28;;;13.10;93.10;;;;;;5116828;28;20494;-86
2021/05/27 20:36:03;;;;;;;8.18;4.20;;;13.00;93.10;;;;;;5118036;28;20076;-85
2021/05/27 20:41:53;;;;;;;10.95;4.60;;;12.90;93.10;;;;;;5117203;28;20080;-87
2021/05/27 21:24:56;;;;;;;13.88;4.72;;;12.70;93.30;;;;;;5647984;22;20064;-88
2021/05/27 21:31:06;;;;;;;10.23;5.05;;;12.70;93.10;;;;;;5054984;28;20086;-88
2021/05/27 21:43:57;;;;;;;13.35;5.75;;;12.40;93.20;;;;;;5012872;28;20085;-89
2021/05/27 21:50:37;;;;;;;12.23;6.30;;;12.50;93.30;;;;;;5013255;28;20506;-89
2021/05/27 22:13:38;;;;;;;12.40;5.60;;;12.30;93.40;;;;;;5054160;28;20055;-87
2021/05/27 22:19:31;;;;;;;11.27;5.35;;;12.30;93.40;;;;;;5054047;28;20028;-87
2021/05/27 22:25:23;;;;;;;11.13;5.53;;;12.20;93.50;;;;;;5053845;28;20069;-87
2021/05/27 22:31:16;;;;;;;11.88;5.70;;;12.30;93.50;;;;;;5053969;28;20043;-87
2021/05/27 22:37:10;;;;;;;10.18;5.32;;;12.30;93.70;;;;;;5053792;28;20070;-88
2021/05/27 22:42:59;;;;;;;12.95;6.05;;;12.30;93.60;;;;;;5053553;28;20416;-87
2021/05/27 22:48:48;;;;;;;13.15;5.53;;;12.30;93.60;;;;;;5053764;28;20048;-87
2021/05/27 22:54:37;;;;;;;12.23;5.60;;;12.30;93.40;;;;;;5053523;28;20051;-87
2021/05/27 23:00:25;;;;;;;11.70;6.18;;;12.20;93.40;;;;;;5055589;28;20082;-86
2021/05/27 23:06:16;;;;;;;11.43;5.75;;;12.20;93.40;;;;;;5053961;28;20537;-87
2021/05/27 23:16:12;;;;;;;11.30;6.20;;;12.20;93.60;;;;;;5053677;28;20086;-87
2021/05/27 23:22:01;;;;;;;12.70;6.72;;;12.20;93.50;;;;;;5054089;28;20063;-87
2021/05/27 23:28:19;;;;;;;12.93;6.93;;;12.10;93.50;;;;;;5053535;28;20036;-87
2021/05/27 23:34:09;;;;;;;12.95;6.80;;;12.10;93.50;;;;;;5053145;28;20075;-86
2021/05/27 23:39:58;;;;;;;13.63;7.40;;;12.10;93.60;;;;;;5053256;28;20078;-87
2021/05/27 23:45:48;;;;;;;13.48;7.70;;;12.20;93.60;;;;;;5056814;28;20035;-86
2021/05/27 23:51:36;;;;;;;13.77;7.68;;;12.10;93.60;;;;;;5056983;28;20487;-87
2021/05/27 23:57:28;;;;;;;14.80;7.68;;;12.10;93.50;;;;;;5056577;28;20040;-87
